Time;durP1;ratioP1;P1;durP2;ratioP2;P2;SDS_P1;SDS_P2;PMS_P1;PMS_P2;Temp;Humidity;BMP_temperature;BMP_pressure;BME280_temperature;BME280_humidity;BME280_pressure;Samples;Min_cycle;Max_cycle;Signal;HPM_P1;HPM_P2
2022/08/24 00:01:21;;;;;;;1.90;0.70;;;19.20;1.00;;;;;;5079114;28;20560;-89
2022/08/24 00:03:47;;;;;;;1.73;0.20;;;19.10;1.00;;;;;;5096232;28;20434;-90
2022/08/24 00:06:19;;;;;;;1.13;0.30;;;19.10;1.00;;;;;;5092649;28;20418;-90
2022/08/24 00:08:49;;;;;;;4.73;0.53;;;19.10;99.90;;;;;;5054821;28;20510;-87
2022/08/24 00:11:15;;;;;;;1.00;0.47;;;19.00;1.00;;;;;;5072077;28;20826;-85
2022/08/24 00:13:41;;;;;;;1.17;0.60;;;19.00;99.90;;;;;;5056872;28;20455;-92
2022/08/24 00:16:08;;;;;;;2.70;0.47;;;18.90;1.00;;;;;;5073904;28;20487;-89
2022/08/24 00:18:34;;;;;;;1.60;0.40;;;18.90;1.00;;;;;;5055224;28;20941;-94
2022/08/24 00:21:00;;;;;;;1.00;0.50;;;18.90;99.90;;;;;;5073457;28;20443;-87
2022/08/24 00:23:27;;;;;;;0.87;0.30;;;18.90;1.00;;;;;;5077422;28;20426;-92
2022/08/24 00:25:53;;;;;;;0.60;0.30;;;19.00;99.90;;;;;;5062051;28;20458;-93
2022/08/24 00:28:18;;;;;;;0.70;0.23;;;19.00;1.00;;;;;;5060231;28;20799;-93
2022/08/24 00:30:44;;;;;;;1.10;0.30;;;18.90;99.90;;;;;;5058832;28;20173;-90
2022/08/24 00:33:09;;;;;;;0.90;0.20;;;18.90;99.90;;;;;;5059621;28;20174;-91
2022/08/24 00:35:35;;;;;;;1.80;0.33;;;18.80;99.90;;;;;;5057725;28;20256;-95
2022/08/24 00:38:01;;;;;;;0.70;0.20;;;18.70;99.90;;;;;;5054478;28;20186;-92
2022/08/24 00:40:32;;;;;;;1.60;0.40;;;18.80;99.90;;;;;;5056141;28;20555;-93
2022/08/24 00:43:02;;;;;;;0.77;0.20;;;18.70;1.00;;;;;;5056129;28;20560;-94
2022/08/24 00:45:36;;;;;;;1.60;0.30;;;18.70;1.00;;;;;;5061561;28;20413;-89
2022/08/24 00:48:10;;;;;;;1.13;0.20;;;18.70;1.00;;;;;;5081488;28;20455;-94
2022/08/24 00:50:37;;;;;;;2.83;0.43;;;18.70;1.00;;;;;;5073095;28;20411;-91
2022/08/24 00:53:07;;;;;;;2.13;0.50;;;18.70;17.30;;;;;;5072953;28;20413;-90
2022/08/24 00:55:37;;;;;;;1.80;0.50;;;18.60;99.30;;;;;;5054850;28;20928;-93
2022/08/24 00:58:13;;;;;;;1.10;0.27;;;18.60;99.90;;;;;;5051070;28;20465;-89
2022/08/24 01:00:43;;;;;;;1.27;0.97;;;18.50;99.90;;;;;;5034268;28;20456;-93
2022/08/24 01:03:10;;;;;;;0.80;0.40;;;18.50;99.90;;;;;;5053221;28;20821;-93
2022/08/24 01:05:37;;;;;;;1.13;0.43;;;18.50;99.90;;;;;;5036362;28;20432;-92
2022/08/24 01:08:06;;;;;;;1.43;0.30;;;18.50;99.90;;;;;;5034779;28;20558;-96
2022/08/24 01:10:40;;;;;;;1.00;0.37;;;18.40;99.90;;;;;;5061019;28;20429;-88
2022/08/24 01:13:08;;;;;;;1.90;0.50;;;18.40;1.00;;;;;;5039832;28;20421;-93
2022/08/24 01:15:38;;;;;;;1.90;0.80;;;18.50;99.90;;;;;;5046460;28;20431;-93
2022/08/24 01:21:00;;;;;;;1.53;0.50;;;18.30;1.00;;;;;;5073045;28;20780;-88
2022/08/24 01:23:31;;;;;;;1.77;0.30;;;18.30;1.00;;;;;;5075799;28;20425;-91
2022/08/24 01:25:57;;;;;;;1.80;0.30;;;18.20;1.00;;;;;;5060278;28;20413;-87
2022/08/24 01:28:23;;;;;;;1.60;0.30;;;18.20;1.00;;;;;;5049890;28;20452;-94
2022/08/24 01:30:48;;;;;;;0.93;0.53;;;18.20;1.00;;;;;;5046118;28;20178;-88
2022/08/24 01:33:30;;;;;;;1.23;0.40;;;18.20;1.00;;;;;;5048586;28;20704;-92
2022/08/24 01:36:17;;;;;;;1.33;0.70;;;18.20;1.00;;;;;;5065430;28;20169;-88
2022/08/24 01:38:43;;;;;;;2.10;0.43;;;18.10;1.00;;;;;;5059157;28;20481;-88
2022/08/24 01:41:08;;;;;;;1.27;0.47;;;18.10;1.00;;;;;;5042437;28;20462;-89
2022/08/24 01:43:34;;;;;;;0.90;0.53;;;18.00;1.00;;;;;;5064604;28;20451;-94
2022/08/24 01:45:59;;;;;;;1.20;0.47;;;17.90;1.00;;;;;;5055611;28;20687;-95
2022/08/24 01:48:25;;;;;;;4.70;1.27;;;17.90;1.00;;;;;;5058697;28;20175;-95
2022/08/24 01:50:51;;;;;;;1.17;0.50;;;18.00;1.00;;;;;;5058670;28;20182;-90
2022/08/24 01:53:19;;;;;;;0.90;0.20;;;18.00;1.00;;;;;;5066234;28;20439;-86
2022/08/24 01:55:45;;;;;;;0.70;0.37;;;17.80;1.00;;;;;;5123338;22;20503;-88
2022/08/24 01:58:11;;;;;;;1.23;0.63;;;17.60;10.80;;;;;;5068007;28;20427;-89
2022/08/24 02:00:37;;;;;;;0.80;0.20;;;17.70;3.60;;;;;;5050332;28;20191;-93
2022/08/24 02:03:04;;;;;;;1.43;0.60;;;17.80;6.70;;;;;;5054039;28;20465;-90
2022/08/24 02:05:30;;;;;;;1.07;0.40;;;17.80;1.00;;;;;;5045639;28;20407;-95
2022/08/24 02:07:57;;;;;;;1.80;0.30;;;17.80;13.40;;;;;;5040613;28;20433;-89
2022/08/24 02:10:23;;;;;;;1.97;0.60;;;17.80;1.00;;;;;;5056683;28;20550;-94
2022/08/24 02:12:56;;;;;;;1.23;0.30;;;17.90;1.00;;;;;;5071403;28;20447;-95
2022/08/24 02:15:26;;;;;;;3.40;0.67;;;17.80;2.30;;;;;;5038054;28;20432;-87
2022/08/24 02:17:51;;;;;;;0.70;0.20;;;17.70;26.40;;;;;;5037652;28;20461;-87
2022/08/24 02:20:20;;;;;;;1.13;0.40;;;17.70;45.70;;;;;;5037243;28;20466;-86
2022/08/24 02:22:46;;;;;;;2.50;0.50;;;17.70;33.40;;;;;;5037838;28;20268;-87
2022/08/24 02:25:12;;;;;;;1.20;0.67;;;17.70;72.70;;;;;;5055381;28;20414;-85
2022/08/24 02:27:38;;;;;;;1.93;0.33;;;17.50;99.90;;;;;;5037541;28;20962;-86
2022/08/24 02:30:04;;;;;;;2.30;0.40;;;17.50;99.90;;;;;;5055124;28;20444;-86
2022/08/24 02:32:29;;;;;;;1.40;0.40;;;17.50;98.60;;;;;;5054848;28;20175;-87
2022/08/24 02:34:55;;;;;;;2.30;1.07;;;17.60;98.80;;;;;;5054715;28;20418;-87
2022/08/24 02:37:20;;;;;;;1.37;0.40;;;17.50;99.90;;;;;;5036951;28;20176;-87
2022/08/24 02:39:46;;;;;;;2.87;0.53;;;17.40;99.90;;;;;;5036793;28;20543;-89
2022/08/24 02:42:13;;;;;;;2.00;0.50;;;17.50;99.90;;;;;;5037214;28;20204;-87
2022/08/24 02:44:38;;;;;;;3.37;0.87;;;17.50;99.90;;;;;;5054666;28;20169;-87
2022/08/24 02:47:04;;;;;;;1.93;0.60;;;17.50;99.90;;;;;;5036348;28;20929;-88
2022/08/24 02:49:29;;;;;;;1.20;0.37;;;17.30;99.90;;;;;;5037126;28;20170;-86
2022/08/24 02:51:55;;;;;;;1.20;0.73;;;17.20;99.90;;;;;;5054839;28;20252;-87
2022/08/24 02:54:20;;;;;;;0.93;0.50;;;17.20;99.90;;;;;;5054730;28;20176;-87
2022/08/24 02:56:47;;;;;;;1.10;0.60;;;17.10;99.90;;;;;;5054420;28;20218;-87
2022/08/24 02:59:12;;;;;;;0.80;0.40;;;17.00;99.90;;;;;;5054745;28;20162;-88
2022/08/24 03:01:38;;;;;;;1.80;0.50;;;16.90;99.90;;;;;;5035894;28;20520;-88
2022/08/24 03:04:04;;;;;;;1.93;0.80;;;16.80;99.90;;;;;;5036962;28;20542;-88
2022/08/24 03:06:30;;;;;;;1.53;0.50;;;16.70;99.90;;;;;;5036604;28;20262;-88
2022/08/24 03:08:55;;;;;;;2.13;0.60;;;16.70;99.90;;;;;;5036466;28;20522;-88
2022/08/24 03:11:21;;;;;;;1.37;0.80;;;16.70;99.90;;;;;;5036436;28;20167;-87
2022/08/24 03:13:46;;;;;;;2.20;0.77;;;16.80;99.90;;;;;;5036626;28;20176;-87
2022/08/24 03:16:12;;;;;;;1.60;0.63;;;16.70;99.90;;;;;;5036314;28;20177;-88
2022/08/24 03:18:38;;;;;;;2.90;0.40;;;16.80;99.90;;;;;;5054147;28;20223;-87
2022/08/24 03:21:03;;;;;;;2.40;0.57;;;16.90;99.90;;;;;;5054200;28;20636;-87
2022/08/24 03:23:29;;;;;;;1.63;0.60;;;16.90;99.90;;;;;;5035984;28;20419;-87
2022/08/24 03:25:55;;;;;;;1.37;0.40;;;16.80;99.90;;;;;;5036331;28;20668;-87
2022/08/24 03:28:22;;;;;;;1.50;0.70;;;16.80;99.90;;;;;;5036313;28;20640;-87
2022/08/24 03:30:49;;;;;;;4.53;0.70;;;16.80;99.90;;;;;;5035910;28;20930;-85
2022/08/24 03:33:14;;;;;;;1.60;0.60;;;16.80;99.90;;;;;;5053972;28;20408;-85
2022/08/24 03:35:40;;;;;;;3.07;0.40;;;16.80;99.90;;;;;;5053810;28;20422;-87
2022/08/24 03:38:06;;;;;;;1.73;0.63;;;16.80;99.90;;;;;;5053968;28;20178;-85
2022/08/24 03:40:32;;;;;;;2.30;0.63;;;16.70;99.90;;;;;;5053827;28;20173;-87
2022/08/24 03:42:58;;;;;;;1.90;0.43;;;16.70;99.90;;;;;;5053556;28;20208;-86
2022/08/24 03:45:24;;;;;;;2.20;0.87;;;16.70;99.90;;;;;;5053289;28;20488;-86
2022/08/24 03:47:50;;;;;;;1.20;0.53;;;16.70;99.90;;;;;;5035087;28;20420;-86
2022/08/24 03:50:17;;;;;;;1.40;0.47;;;16.80;99.90;;;;;;5035485;28;20547;-86
2022/08/24 03:52:42;;;;;;;4.20;0.90;;;16.80;99.90;;;;;;5053522;28;20411;-87
2022/08/24 03:55:09;;;;;;;4.87;1.60;;;16.80;99.90;;;;;;5052906;28;20467;-87
2022/08/24 03:57:34;;;;;;;1.10;0.57;;;16.80;99.90;;;;;;5053926;28;20219;-89
2022/08/24 04:00:01;;;;;;;0.97;0.50;;;16.80;99.90;;;;;;5053958;28;20452;-89
2022/08/24 04:02:27;;;;;;;3.30;0.83;;;16.70;99.90;;;;;;5035789;28;20215;-90
2022/08/24 04:04:52;;;;;;;1.77;0.90;;;16.60;99.90;;;;;;5036240;28;20792;-90
2022/08/24 04:07:18;;;;;;;2.20;0.90;;;16.60;99.90;;;;;;5036319;28;20427;-89
2022/08/24 04:09:44;;;;;;;5.63;0.67;;;16.50;99.90;;;;;;5036498;28;20173;-89
2022/08/24 04:12:10;;;;;;;1.23;0.60;;;16.40;99.90;;;;;;5036132;28;20443;-88
2022/08/24 04:14:35;;;;;;;2.20;1.00;;;16.30;99.90;;;;;;5052975;28;20169;-89
2022/08/24 04:17:01;;;;;;;2.03;1.00;;;16.30;99.90;;;;;;5053551;28;20177;-87
2022/08/24 04:19:27;;;;;;;2.07;0.63;;;16.30;99.90;;;;;;5036028;28;20633;-89
2022/08/24 04:21:53;;;;;;;0.90;0.40;;;16.40;99.90;;;;;;5053350;28;20565;-86
2022/08/24 04:24:19;;;;;;;1.73;0.50;;;16.40;99.90;;;;;;5053599;28;20256;-89
2022/08/24 04:26:45;;;;;;;2.80;0.97;;;16.50;99.90;;;;;;5035916;28;20903;-90
2022/08/24 04:29:12;;;;;;;2.47;0.80;;;16.50;99.90;;;;;;5036091;28;20176;-88
2022/08/24 04:31:39;;;;;;;1.57;1.03;;;16.50;99.90;;;;;;5053164;28;20168;-89
2022/08/24 04:34:06;;;;;;;1.10;0.40;;;16.50;99.90;;;;;;5053428;28;20450;-89
2022/08/24 04:36:32;;;;;;;1.17;0.50;;;16.60;99.90;;;;;;5053808;28;20406;-91
2022/08/24 04:38:59;;;;;;;2.30;0.70;;;16.70;99.90;;;;;;5036176;28;20910;-91
2022/08/24 04:41:25;;;;;;;2.00;0.73;;;16.70;99.90;;;;;;5053882;28;20511;-91
2022/08/24 04:43:50;;;;;;;1.10;0.50;;;16.70;99.90;;;;;;5036057;28;20432;-91
2022/08/24 04:46:18;;;;;;;1.33;0.70;;;16.70;99.90;;;;;;5036016;28;20180;-90
2022/08/24 04:48:46;;;;;;;2.30;0.80;;;16.70;99.90;;;;;;5053123;28;20259;-89
2022/08/24 04:51:13;;;;;;;1.37;0.83;;;16.80;99.90;;;;;;5036193;28;20424;-89
2022/08/24 04:53:40;;;;;;;6.17;1.80;;;16.70;99.90;;;;;;5053746;28;20431;-90
2022/08/24 04:56:23;;;;;;;5.30;0.97;;;16.80;99.90;;;;;;5035959;28;21095;-92
2022/08/24 04:58:50;;;;;;;2.70;1.00;;;16.90;99.90;;;;;;5053493;28;20753;-88
2022/08/24 05:01:19;;;;;;;2.10;0.57;;;16.90;99.90;;;;;;5034706;28;20984;-87
2022/08/24 05:03:47;;;;;;;3.90;0.80;;;16.90;99.90;;;;;;5053211;28;20419;-89
2022/08/24 05:06:14;;;;;;;2.33;1.00;;;17.00;99.90;;;;;;5034787;28;20412;-88
2022/08/24 05:08:40;;;;;;;1.53;0.40;;;17.00;99.90;;;;;;5052881;28;20418;-86
2022/08/24 05:11:07;;;;;;;2.50;1.43;;;17.10;99.90;;;;;;5052649;28;20410;-87
2022/08/24 05:13:33;;;;;;;2.00;1.07;;;17.20;99.90;;;;;;5034645;28;21223;-86
2022/08/24 05:15:58;;;;;;;2.77;1.60;;;17.20;99.90;;;;;;5034182;28;20413;-87
2022/08/24 05:18:26;;;;;;;1.90;1.07;;;17.30;99.90;;;;;;5034313;28;20428;-87
2022/08/24 05:20:52;;;;;;;2.30;0.60;;;17.30;99.90;;;;;;5033212;28;20583;-87
2022/08/24 05:23:18;;;;;;;1.93;0.97;;;17.40;99.90;;;;;;5032938;28;20464;-86
2022/08/24 05:25:44;;;;;;;1.83;0.90;;;17.50;99.90;;;;;;5037688;28;20165;-89
2022/08/24 05:28:09;;;;;;;2.00;1.50;;;17.60;99.90;;;;;;5038813;28;20429;-87
2022/08/24 05:30:35;;;;;;;1.83;0.73;;;17.70;99.90;;;;;;5038335;28;20639;-87
2022/08/24 05:33:01;;;;;;;1.93;1.10;;;17.90;99.90;;;;;;5038523;28;20670;-87
2022/08/24 05:35:26;;;;;;;2.20;1.10;;;18.20;99.90;;;;;;5038444;28;20414;-87
2022/08/24 05:37:52;;;;;;;3.20;1.60;;;18.70;99.90;;;;;;5056189;28;20650;-88
2022/08/24 05:40:18;;;;;;;1.87;1.27;;;19.20;99.90;;;;;;5038381;28;20175;-87
2022/08/24 05:42:44;;;;;;;4.23;1.53;;;19.70;99.90;;;;;;5056035;28;20599;-85
2022/08/24 05:45:11;;;;;;;2.60;1.03;;;20.00;5.90;;;;;;5055611;28;20405;-87
2022/08/24 05:47:37;;;;;;;3.30;1.50;;;20.10;1.00;;;;;;5056251;28;20172;-87
2022/08/24 05:50:04;;;;;;;3.37;1.37;;;20.00;1.00;;;;;;5037892;28;20488;-86
2022/08/24 05:52:30;;;;;;;3.00;0.93;;;20.00;1.00;;;;;;5037748;28;20426;-85
2022/08/24 05:54:58;;;;;;;4.73;0.93;;;20.80;1.00;;;;;;5055614;28;20412;-86
2022/08/24 05:57:25;;;;;;;3.60;0.80;;;21.00;99.90;;;;;;5056314;28;20235;-88
2022/08/24 05:59:51;;;;;;;2.23;1.10;;;21.50;99.90;;;;;;5055737;28;20421;-86
2022/08/24 06:02:18;;;;;;;3.30;1.20;;;22.00;1.00;;;;;;5055120;28;20477;-86
2022/08/24 06:04:44;;;;;;;2.00;1.27;;;22.50;99.90;;;;;;5055631;28;20831;-86
2022/08/24 06:07:11;;;;;;;1.77;0.73;;;22.70;1.00;;;;;;5055747;28;20439;-87
2022/08/24 06:09:39;;;;;;;2.70;1.27;;;23.40;1.00;;;;;;5055604;28;20411;-87
2022/08/24 06:12:05;;;;;;;4.10;1.43;;;24.20;1.00;;;;;;5037756;28;20920;-89
2022/08/24 06:14:33;;;;;;;1.70;0.73;;;24.60;99.90;;;;;;5037700;28;20425;-88
2022/08/24 06:16:59;;;;;;;1.33;0.90;;;24.80;99.90;;;;;;5037476;28;20779;-88
2022/08/24 06:19:25;;;;;;;3.77;1.37;;;25.00;99.90;;;;;;5037500;28;20414;-88
2022/08/24 06:21:53;;;;;;;2.00;1.20;;;25.10;99.90;;;;;;5037424;28;20306;-87
2022/08/24 06:27:19;;;;;;;3.80;1.47;;;25.00;99.90;;;;;;5055208;28;20824;-86
2022/08/24 06:27:20;;;;;;;1.63;1.40;;;25.50;99.90;;;;;;5055626;28;20416;-87
2022/08/24 06:29:46;;;;;;;2.27;1.53;;;25.70;99.90;;;;;;5037570;28;20916;-88
2022/08/24 06:32:11;;;;;;;0.90;0.50;;;26.30;99.90;;;;;;5037689;28;20438;-89
2022/08/24 06:34:38;;;;;;;4.47;1.67;;;26.70;99.90;;;;;;5037119;28;20416;-88
2022/08/24 06:37:04;;;;;;;1.57;0.73;;;26.60;99.90;;;;;;5054900;28;20260;-88
2022/08/24 06:39:29;;;;;;;1.30;0.63;;;26.70;99.90;;;;;;5055038;28;20947;-86
2022/08/24 06:41:55;;;;;;;2.43;1.00;;;27.20;99.90;;;;;;5055067;28;20205;-86
2022/08/24 06:44:20;;;;;;;1.37;0.73;;;27.30;99.90;;;;;;5039656;28;20185;-88
2022/08/24 06:46:49;;;;;;;1.57;0.83;;;26.90;99.90;;;;;;5055153;28;20200;-88
2022/08/24 06:49:14;;;;;;;1.10;0.50;;;26.40;99.90;;;;;;5055716;28;20178;-87
2022/08/24 06:51:40;;;;;;;2.00;0.83;;;26.80;99.90;;;;;;5039355;28;20847;-91
2022/08/24 06:54:08;;;;;;;1.90;0.70;;;26.20;99.90;;;;;;5041316;28;20194;-91
2022/08/24 06:56:36;;;;;;;2.53;0.97;;;26.80;99.90;;;;;;5037919;28;20217;-90
2022/08/24 06:59:02;;;;;;;4.13;1.10;;;26.90;99.90;;;;;;5054782;28;20424;-89
2022/08/24 07:01:29;;;;;;;1.53;0.50;;;26.70;99.90;;;;;;5064217;28;20472;-87
2022/08/24 07:03:55;;;;;;;1.97;1.07;;;26.90;99.90;;;;;;5057592;28;20421;-87
2022/08/24 07:06:23;;;;;;;3.47;0.97;;;27.40;99.90;;;;;;5057324;28;20499;-87
2022/08/24 07:08:50;;;;;;;1.23;0.47;;;27.90;99.90;;;;;;5056203;28;20495;-88
2022/08/24 07:11:17;;;;;;;1.10;0.60;;;27.90;99.90;;;;;;5036232;28;20416;-87
2022/08/24 07:13:45;;;;;;;2.07;0.60;;;28.30;88.10;;;;;;5054279;28;20443;-89
2022/08/24 07:16:11;;;;;;;1.47;0.77;;;28.40;81.70;;;;;;5035731;28;20420;-84
2022/08/24 07:18:36;;;;;;;1.47;0.47;;;28.30;58.40;;;;;;5054380;28;20486;-87
2022/08/24 07:21:03;;;;;;;0.90;0.50;;;29.00;55.90;;;;;;5054132;28;20641;-86
2022/08/24 07:23:30;;;;;;;1.87;0.60;;;27.60;68.80;;;;;;5053843;28;20212;-86
2022/08/24 07:25:55;;;;;;;1.70;0.70;;;27.60;77.90;;;;;;5036306;28;20474;-84
2022/08/24 07:28:21;;;;;;;1.80;1.00;;;28.40;69.90;;;;;;5036233;28;20951;-87
2022/08/24 07:30:47;;;;;;;3.00;0.97;;;27.50;71.00;;;;;;5053663;28;20174;-83
2022/08/24 07:33:12;;;;;;;2.90;1.43;;;27.50;80.80;;;;;;5053709;28;20235;-84
2022/08/24 07:35:39;;;;;;;1.93;0.50;;;28.20;83.80;;;;;;5053874;28;20173;-82
2022/08/24 07:38:07;;;;;;;1.73;0.50;;;28.80;37.80;;;;;;5053827;28;20715;-85
2022/08/24 07:40:34;;;;;;;1.03;0.67;;;27.80;43.70;;;;;;5035977;28;20769;-84
2022/08/24 07:42:59;;;;;;;1.97;0.53;;;28.40;52.70;;;;;;5053729;28;20493;-84
2022/08/24 07:45:26;;;;;;;2.63;0.70;;;29.90;36.00;;;;;;5035119;28;20523;-83
2022/08/24 07:47:52;;;;;;;1.70;1.20;;;28.30;26.20;;;;;;5052774;28;20583;-83
2022/08/24 07:50:18;;;;;;;3.63;0.90;;;28.70;28.20;;;;;;5035491;28;20527;-83
2022/08/24 07:52:45;;;;;;;1.80;0.30;;;29.90;32.60;;;;;;5035948;28;20169;-85
2022/08/24 07:55:12;;;;;;;2.00;1.00;;;29.80;15.50;;;;;;5056436;28;20278;-85
2022/08/24 07:57:39;;;;;;;1.90;0.70;;;29.50;8.30;;;;;;5053611;28;20420;-84
2022/08/24 08:00:10;;;;;;;3.17;0.87;;;28.40;13.90;;;;;;5052966;28;20416;-84
2022/08/24 08:02:37;;;;;;;2.10;0.77;;;28.30;20.80;;;;;;5053334;28;20507;-84
2022/08/24 08:05:04;;;;;;;1.47;0.80;;;28.80;19.00;;;;;;5053365;28;20426;-85
2022/08/24 08:07:30;;;;;;;2.07;0.70;;;29.30;21.60;;;;;;5053334;28;20473;-84
2022/08/24 08:10:00;;;;;;;2.30;0.70;;;29.70;17.00;;;;;;5053216;28;20416;-85
2022/08/24 08:12:26;;;;;;;1.87;0.60;;;29.30;14.50;;;;;;5035308;28;20540;-84
2022/08/24 08:14:51;;;;;;;1.70;0.77;;;30.00;14.00;;;;;;5052901;28;20457;-84
2022/08/24 08:17:17;;;;;;;1.00;0.40;;;29.90;7.80;;;;;;5053154;28;20232;-84
2022/08/24 08:19:42;;;;;;;2.10;1.07;;;30.80;1.00;;;;;;5053203;28;20175;-84
2022/08/24 08:24:52;;;;;;;1.40;0.73;;;31.50;1.00;;;;;;5053383;28;20180;-84
2022/08/24 08:27:20;;;;;;;1.47;0.67;;;31.00;1.00;;;;;;5053152;28;20420;-83
2022/08/24 08:29:47;;;;;;;3.07;1.00;;;30.50;1.00;;;;;;5052665;28;20174;-84
2022/08/24 08:32:15;;;;;;;2.70;1.03;;;31.10;1.00;;;;;;5035042;28;20760;-84
2022/08/24 08:34:42;;;;;;;2.13;0.90;;;31.50;1.00;;;;;;5052815;28;20420;-85
2022/08/24 08:37:08;;;;;;;2.33;0.60;;;31.50;1.00;;;;;;5034974;28;20775;-81
2022/08/24 08:39:33;;;;;;;1.40;0.80;;;31.20;1.00;;;;;;5051967;28;20421;-84
2022/08/24 08:42:02;;;;;;;1.30;0.63;;;31.20;1.00;;;;;;5052756;28;20208;-85
2022/08/24 08:44:52;;;;;;;1.33;0.90;;;31.00;1.00;;;;;;5052383;28;20185;-83
2022/08/24 08:47:36;;;;;;;1.33;0.67;;;30.40;1.00;;;;;;5052777;28;20916;-84
2022/08/24 08:50:13;;;;;;;2.40;1.07;;;30.50;1.00;;;;;;5052521;28;20405;-83
2022/08/24 08:53:09;;;;;;;1.50;0.70;;;30.30;1.00;;;;;;5052467;28;20416;-84
2022/08/24 08:56:02;;;;;;;1.47;0.70;;;32.00;1.00;;;;;;5051832;28;20476;-84
2022/08/24 08:59:02;;;;;;;1.87;1.27;;;30.80;1.00;;;;;;5052511;28;20423;-83
2022/08/24 09:01:40;;;;;;;2.20;1.10;;;30.40;1.00;;;;;;5056777;28;20479;-89
2022/08/24 09:04:58;;;;;;;1.93;0.80;;;31.70;1.00;;;;;;5056539;28;20477;-89
2022/08/24 09:07:47;;;;;;;1.43;0.93;;;32.00;1.00;;;;;;5032466;28;20421;-93
2022/08/24 09:10:38;;;;;;;1.20;0.53;;;32.90;1.00;;;;;;5018425;28;20963;-89
2022/08/24 09:13:30;;;;;;;1.27;0.60;;;32.40;1.00;;;;;;5021559;28;20936;-91
2022/08/24 09:16:20;;;;;;;0.90;0.50;;;33.20;1.00;;;;;;5024318;28;20566;-87
2022/08/24 09:19:04;;;;;;;1.60;0.90;;;32.40;1.00;;;;;;5024159;28;20408;-87
2022/08/24 09:21:55;;;;;;;1.40;0.60;;;33.40;1.00;;;;;;5042680;28;20449;-93
2022/08/24 09:24:46;;;;;;;1.23;0.60;;;32.40;1.00;;;;;;5035901;28;20484;-92
2022/08/24 09:27:43;;;;;;;2.00;0.90;;;31.50;1.00;;;;;;5018173;28;20491;-86
2022/08/24 09:30:26;;;;;;;2.67;0.80;;;31.80;1.00;;;;;;5017878;28;20417;-90
2022/08/24 09:33:06;;;;;;;2.80;0.80;;;33.10;1.00;;;;;;5017867;28;20417;-88
2022/08/24 09:35:50;;;;;;;1.63;0.63;;;33.50;1.00;;;;;;5038387;28;20421;-86
2022/08/24 09:38:54;;;;;;;1.10;0.50;;;32.70;1.00;;;;;;5040208;28;20436;-91
2022/08/24 09:42:02;;;;;;;1.57;0.67;;;33.40;1.00;;;;;;5038128;28;20885;-92
2022/08/24 09:44:59;;;;;;;1.30;0.53;;;33.20;1.00;;;;;;5018792;28;20437;-89
2022/08/24 09:47:56;;;;;;;1.37;0.70;;;33.00;1.00;;;;;;5036071;28;20459;-92
2022/08/24 09:50:28;;;;;;;1.47;0.50;;;32.30;1.00;;;;;;5018732;28;20421;-88
2022/08/24 09:53:18;;;;;;;1.00;0.60;;;31.90;1.00;;;;;;5018096;28;20460;-92
2022/08/24 09:56:13;;;;;;;1.90;0.90;;;32.90;1.00;;;;;;5035469;28;20464;-88
2022/08/24 09:59:06;;;;;;;0.97;0.67;;;32.10;1.00;;;;;;5037413;28;20456;-95
2022/08/24 10:01:47;;;;;;;0.70;0.40;;;33.10;1.00;;;;;;5018861;28;20471;-89
2022/08/24 10:04:35;;;;;;;1.13;0.60;;;33.40;1.00;;;;;;5039442;28;20435;-93
2022/08/24 10:07:38;;;;;;;1.57;0.73;;;34.30;1.00;;;;;;5037609;28;20920;-93
2022/08/24 10:10:38;;;;;;;1.27;0.70;;;34.80;1.00;;;;;;4997351;28;20409;-85
2022/08/24 10:13:17;;;;;;;1.73;0.97;;;33.80;1.00;;;;;;5034948;28;20413;-87
2022/08/24 10:16:14;;;;;;;1.00;0.67;;;33.90;1.00;;;;;;5035123;28;20416;-84
2022/08/24 10:19:06;;;;;;;1.43;0.70;;;34.00;1.00;;;;;;5035863;28;20421;-83
2022/08/24 10:21:46;;;;;;;0.80;0.50;;;33.60;1.00;;;;;;5035032;28;20459;-85
2022/08/24 10:24:39;;;;;;;0.80;0.40;;;33.70;1.00;;;;;;5034221;28;20432;-83
2022/08/24 10:27:34;;;;;;;1.00;0.40;;;33.60;1.00;;;;;;5016860;28;20429;-84
2022/08/24 10:30:08;;;;;;;0.93;0.50;;;33.60;1.00;;;;;;5034878;28;20508;-86
2022/08/24 10:32:40;;;;;;;0.90;0.30;;;34.70;1.00;;;;;;5035047;28;20421;-83
2022/08/24 10:35:31;;;;;;;1.10;0.77;;;35.40;1.00;;;;;;5067881;28;20430;-84
2022/08/24 10:42:06;;;;;;;1.23;0.43;;;34.20;1.00;;;;;;5060705;28;20415;-85
2022/08/24 10:44:48;;;;;;;1.23;0.40;;;34.30;1.00;;;;;;5064713;28;20407;-83
2022/08/24 10:47:27;;;;;;;2.50;0.50;;;33.90;1.00;;;;;;5064635;28;20418;-84
2022/08/24 10:50:40;;;;;;;1.10;0.60;;;33.20;1.00;;;;;;5064891;28;20414;-83
2022/08/24 10:53:20;;;;;;;1.10;0.40;;;33.40;1.00;;;;;;5045834;28;20427;-85
2022/08/24 10:55:50;;;;;;;1.30;0.50;;;34.00;1.00;;;;;;5058301;28;20483;-82
2022/08/24 10:58:51;;;;;;;0.57;0.37;;;33.40;1.00;;;;;;5064262;28;20415;-84
2022/08/24 11:01:36;;;;;;;1.53;0.60;;;34.10;1.00;;;;;;5063821;28;20789;-84
2022/08/24 11:04:24;;;;;;;1.50;0.53;;;33.70;1.00;;;;;;5060796;28;20416;-84
2022/08/24 11:07:04;;;;;;;3.00;0.77;;;33.60;1.00;;;;;;5062172;28;20758;-82
2022/08/24 11:09:52;;;;;;;1.20;0.70;;;33.60;1.00;;;;;;5059415;28;20561;-84
2022/08/24 11:12:24;;;;;;;1.80;0.73;;;32.30;1.00;;;;;;5059912;28;20420;-85
2022/08/24 11:14:51;;;;;;;1.33;0.57;;;33.10;1.00;;;;;;5058896;28;20432;-84
2022/08/24 11:17:20;;;;;;;0.87;0.40;;;34.30;1.00;;;;;;5053366;28;20422;-87
2022/08/24 11:19:47;;;;;;;0.70;0.57;;;34.30;1.00;;;;;;5037986;28;20507;-87
2022/08/24 11:22:31;;;;;;;1.53;0.60;;;34.30;1.00;;;;;;5034889;28;20934;-89
2022/08/24 11:25:21;;;;;;;0.93;0.50;;;33.80;1.00;;;;;;5053200;28;20765;-83
2022/08/24 11:27:51;;;;;;;0.97;0.70;;;34.10;1.00;;;;;;5052746;28;20447;-83
2022/08/24 11:30:16;;;;;;;1.40;0.97;;;34.20;1.00;;;;;;5047724;28;20424;-84
2022/08/24 11:32:45;;;;;;;1.30;0.87;;;33.80;1.00;;;;;;5015250;28;20963;-84
2022/08/24 11:35:19;;;;;;;0.70;0.30;;;34.80;1.00;;;;;;5033318;28;20268;-84
2022/08/24 11:37:45;;;;;;;1.77;0.87;;;34.50;1.00;;;;;;5038848;28;20421;-84
2022/08/24 11:40:12;;;;;;;2.30;0.63;;;34.80;1.00;;;;;;5036286;28;20419;-83
2022/08/24 11:43:15;;;;;;;1.70;0.80;;;34.20;1.00;;;;;;5035066;28;20468;-84
2022/08/24 11:46:13;;;;;;;1.73;1.10;;;34.30;1.00;;;;;;5041989;28;20416;-85
2022/08/24 11:48:52;;;;;;;0.83;0.60;;;33.80;1.00;;;;;;4983133;28;20908;-85
2022/08/24 11:51:46;;;;;;;1.00;0.67;;;34.00;1.00;;;;;;5052767;28;20971;-86
2022/08/24 11:54:37;;;;;;;0.90;0.60;;;33.60;1.00;;;;;;5035239;28;20419;-84
2022/08/24 11:57:08;;;;;;;1.33;0.97;;;33.50;1.00;;;;;;5052028;28;20998;-85
2022/08/24 11:59:52;;;;;;;1.13;0.60;;;33.40;1.00;;;;;;5034882;28;20431;-85
2022/08/24 12:02:31;;;;;;;1.43;0.67;;;34.30;1.00;;;;;;5053024;28;20468;-87
2022/08/24 12:05:02;;;;;;;1.90;0.60;;;34.00;1.00;;;;;;5052656;28;20415;-87
2022/08/24 12:08:01;;;;;;;3.30;0.47;;;33.80;1.00;;;;;;5035298;28;20428;-86
2022/08/24 12:10:57;;;;;;;1.50;1.00;;;33.60;1.00;;;;;;5052823;28;20405;-86
2022/08/24 12:13:46;;;;;;;1.20;0.53;;;33.60;1.00;;;;;;5053095;28;20515;-85
2022/08/24 12:16:22;;;;;;;1.67;0.57;;;33.80;1.00;;;;;;5035184;28;20463;-87
2022/08/24 12:19:06;;;;;;;1.00;0.50;;;33.40;1.00;;;;;;5052205;28;20423;-87
2022/08/24 12:21:35;;;;;;;2.47;0.70;;;33.50;1.00;;;;;;5052444;28;20509;-89
2022/08/24 12:24:08;;;;;;;1.77;0.63;;;33.50;1.00;;;;;;5052720;28;20428;-87
2022/08/24 12:26:42;;;;;;;1.63;0.43;;;33.30;1.00;;;;;;5052807;28;20439;-87
2022/08/24 12:29:22;;;;;;;1.17;0.60;;;33.80;1.00;;;;;;5034451;28;20498;-86
2022/08/24 12:31:56;;;;;;;3.53;0.97;;;33.40;1.00;;;;;;5052518;28;20754;-86
2022/08/24 12:34:33;;;;;;;0.87;0.70;;;33.20;1.00;;;;;;5051626;28;20409;-85
2022/08/24 12:37:04;;;;;;;1.40;0.63;;;33.50;1.00;;;;;;5034370;28;20432;-86
2022/08/24 12:39:45;;;;;;;1.20;0.50;;;33.00;1.00;;;;;;5052433;28;20412;-85
2022/08/24 12:42:19;;;;;;;1.07;0.60;;;33.10;1.00;;;;;;5052379;28;20470;-86
2022/08/24 12:44:59;;;;;;;1.47;0.43;;;33.10;1.00;;;;;;5052304;28;20927;-86
2022/08/24 12:47:34;;;;;;;0.70;0.50;;;33.80;1.00;;;;;;5052334;28;20424;-87
2022/08/24 12:50:11;;;;;;;1.63;1.20;;;34.20;1.00;;;;;;5052421;28;20474;-87
2022/08/24 12:52:51;;;;;;;1.23;0.70;;;34.80;1.00;;;;;;5052292;28;20416;-86
2022/08/24 12:55:26;;;;;;;1.33;0.97;;;34.00;1.00;;;;;;5052079;28;20451;-86
2022/08/24 12:58:06;;;;;;;1.37;0.70;;;34.10;1.00;;;;;;5052297;28;20425;-87
2022/08/24 13:00:41;;;;;;;1.17;0.97;;;34.50;1.00;;;;;;5051992;28;20848;-87
2022/08/24 13:03:25;;;;;;;1.33;0.70;;;34.10;1.00;;;;;;5052238;28;20525;-86
2022/08/24 13:05:56;;;;;;;1.00;0.60;;;34.20;1.00;;;;;;5052329;28;20432;-86
2022/08/24 13:08:40;;;;;;;1.23;0.83;;;34.10;1.00;;;;;;5052072;28;20442;-86
2022/08/24 13:11:33;;;;;;;0.90;0.70;;;34.70;1.00;;;;;;5052246;28;20424;-86
2022/08/24 13:14:14;;;;;;;1.20;0.80;;;34.50;1.00;;;;;;5051255;28;20431;-88
2022/08/24 13:16:48;;;;;;;1.00;0.80;;;34.40;1.00;;;;;;5052354;28;20967;-88
2022/08/24 13:19:22;;;;;;;0.80;0.60;;;34.40;1.00;;;;;;5052532;28;20417;-88
2022/08/24 13:22:00;;;;;;;1.00;0.83;;;33.80;1.00;;;;;;5052269;28;20442;-87
2022/08/24 13:24:28;;;;;;;2.33;1.37;;;33.70;1.00;;;;;;5052557;28;20427;-92
2022/08/24 13:27:15;;;;;;;1.20;0.70;;;33.50;1.00;;;;;;5052429;28;20499;-88
2022/08/24 13:30:05;;;;;;;0.83;0.50;;;33.00;1.00;;;;;;5033554;28;20782;-89